Portada
METAR-TAF:

METAR-TAF

Aeroports :

Aeroport Internacional Diori Hamani

Niamey, Níger

latitud: 13-29N, longitud: 002-10E, altitud: 223 m

Observació

L'informe es va fer fa 55 minuts, a les 08:00 UTC
Vent 8 kt del Oest/Nord-Oest
Temperatura 34°C
Humitat 28%
Pressió 1009 hPa
Visibilitat: 8000 m

METAR: DRRN 080800Z 29008KT 8000 NSC 34/13 Q1009 NOSIG

Hora: 09:55 (08:55 UTC)

Pronòstic

L'informe es va fer fa 3 hores i 55 minuts, a les 05:00 UTC
Pronòstic vàlid del 08 a les 06 UTC al 09 a les 12 UTC
Vent 8 kt del Sud-Oest
Visibilitat: 8000 m
Temporalment
l' 08 a les 06 UTC al 08 a les 09 UTC
Visibilitat: 4500 m
Pols estès
Probabilitat 30% :
Temporalment
l' 08 a les 14 UTC al 08 a les 18 UTC
Escasses núvols a una alçada de 3500 ft, Cumulonimbus.
tempesta

TAF: DRRN 080500Z 0806/0912 22008KT 8000 NSC TEMPO 0806/0809 4500 DU PROB30 TEMPO 0814/0818 TS FEW035CB

Observacions i pronòstics meteorològics de més de 4000 aeroports (METAR i TAF).

Les estacions disponibles són els punts grocs i vermells al mapa.

Posi el ratolí al punt desitjat per veure el nom de l'estació.

Feu clic per veure les observacions i els pronòstics meteorològics.

Per canviar el mapa: feu clic els botons verds amb una creu de color negre per apropar; al botó verd amb un guió per allunyar la imatge; o en les fletxes verdes per a mapes adjacents.


METAR-TAF: